sensor_id;sensor_type;location;lat;lon;timestamp;P1;durP1;ratioP1;P2;durP2;ratioP2
22525;SDS011;11429;50.842;4.386;2023-05-15T00:00:05;76.45;;;46.20;;
22525;SDS011;11429;50.842;4.386;2023-05-15T00:02:31;83.32;;;48.42;;
22525;SDS011;11429;50.842;4.386;2023-05-15T00:05:00;79.00;;;47.25;;
22525;SDS011;11429;50.842;4.386;2023-05-15T00:07:25;89.47;;;50.05;;
22525;SDS011;11429;50.842;4.386;2023-05-15T00:09:51;86.82;;;52.08;;
22525;SDS011;11429;50.842;4.386;2023-05-15T00:12:17;86.20;;;51.75;;
22525;SDS011;11429;50.842;4.386;2023-05-15T00:14:42;89.07;;;52.63;;
22525;SDS011;11429;50.842;4.386;2023-05-15T00:17:08;91.82;;;54.22;;
22525;SDS011;11429;50.842;4.386;2023-05-15T00:19:34;90.88;;;54.72;;
22525;SDS011;11429;50.842;4.386;2023-05-15T00:22:00;94.25;;;54.35;;
22525;SDS011;11429;50.842;4.386;2023-05-15T00:24:25;91.20;;;54.72;;
22525;SDS011;11429;50.842;4.386;2023-05-15T00:26:51;93.13;;;55.38;;
22525;SDS011;11429;50.842;4.386;2023-05-15T00:29:17;88.95;;;53.03;;
22525;SDS011;11429;50.842;4.386;2023-05-15T00:31:42;86.90;;;53.22;;
22525;SDS011;11429;50.842;4.386;2023-05-15T00:34:08;89.25;;;52.92;;
22525;SDS011;11429;50.842;4.386;2023-05-15T00:36:34;84.30;;;53.78;;
22525;SDS011;11429;50.842;4.386;2023-05-15T00:39:00;87.07;;;53.38;;
22525;SDS011;11429;50.842;4.386;2023-05-15T00:41:25;85.35;;;53.33;;
22525;SDS011;11429;50.842;4.386;2023-05-15T00:43:52;87.50;;;54.58;;
22525;SDS011;11429;50.842;4.386;2023-05-15T00:46:20;85.82;;;54.90;;
22525;SDS011;11429;50.842;4.386;2023-05-15T00:48:47;82.70;;;53.03;;
22525;SDS011;11429;50.842;4.386;2023-05-15T00:51:14;83.75;;;51.33;;
22525;SDS011;11429;50.842;4.386;2023-05-15T00:53:41;85.88;;;50.47;;
22525;SDS011;11429;50.842;4.386;2023-05-15T00:56:07;83.70;;;52.13;;
22525;SDS011;11429;50.842;4.386;2023-05-15T00:58:34;87.22;;;53.25;;
22525;SDS011;11429;50.842;4.386;2023-05-15T01:01:02;87.55;;;52.90;;
22525;SDS011;11429;50.842;4.386;2023-05-15T01:03:28;90.85;;;54.88;;
22525;SDS011;11429;50.842;4.386;2023-05-15T01:05:54;88.85;;;54.45;;
22525;SDS011;11429;50.842;4.386;2023-05-15T01:08:26;99.68;;;59.28;;
22525;SDS011;11429;50.842;4.386;2023-05-15T01:10:53;99.07;;;60.13;;
22525;SDS011;11429;50.842;4.386;2023-05-15T01:13:22;100.95;;;61.13;;
22525;SDS011;11429;50.842;4.386;2023-05-15T01:15:48;103.45;;;60.53;;
22525;SDS011;11429;50.842;4.386;2023-05-15T01:18:14;98.90;;;58.28;;
22525;SDS011;11429;50.842;4.386;2023-05-15T01:20:49;96.45;;;57.65;;
22525;SDS011;11429;50.842;4.386;2023-05-15T01:29:35;73.97;;;46.58;;
22525;SDS011;11429;50.842;4.386;2023-05-15T01:32:00;50.20;;;34.00;;
22525;SDS011;11429;50.842;4.386;2023-05-15T01:34:31;69.63;;;43.78;;
22525;SDS011;11429;50.842;4.386;2023-05-15T01:37:06;68.65;;;45.55;;
22525;SDS011;11429;50.842;4.386;2023-05-15T01:39:35;64.63;;;44.70;;
22525;SDS011;11429;50.842;4.386;2023-05-15T01:42:07;72.00;;;47.22;;
22525;SDS011;11429;50.842;4.386;2023-05-15T01:44:35;66.75;;;43.38;;
22525;SDS011;11429;50.842;4.386;2023-05-15T01:47:14;71.05;;;44.70;;
22525;SDS011;11429;50.842;4.386;2023-05-15T01:49:45;68.68;;;43.38;;
22525;SDS011;11429;50.842;4.386;2023-05-15T01:52:15;67.57;;;44.05;;
22525;SDS011;11429;50.842;4.386;2023-05-15T01:54:44;65.07;;;42.50;;
22525;SDS011;11429;50.842;4.386;2023-05-15T01:57:11;64.10;;;43.05;;
22525;SDS011;11429;50.842;4.386;2023-05-15T01:59:39;63.63;;;41.80;;
22525;SDS011;11429;50.842;4.386;2023-05-15T02:02:06;63.33;;;42.50;;
22525;SDS011;11429;50.842;4.386;2023-05-15T02:04:34;62.50;;;41.72;;
22525;SDS011;11429;50.842;4.386;2023-05-15T02:07:02;72.15;;;43.50;;
22525;SDS011;11429;50.842;4.386;2023-05-15T02:09:29;62.40;;;41.65;;
22525;SDS011;11429;50.842;4.386;2023-05-15T02:11:56;61.67;;;41.65;;
22525;SDS011;11429;50.842;4.386;2023-05-15T02:14:25;58.35;;;40.78;;
22525;SDS011;11429;50.842;4.386;2023-05-15T02:16:53;63.83;;;43.17;;
22525;SDS011;11429;50.842;4.386;2023-05-15T02:19:19;68.65;;;44.85;;
22525;SDS011;11429;50.842;4.386;2023-05-15T02:21:45;65.57;;;44.80;;
22525;SDS011;11429;50.842;4.386;2023-05-15T02:24:11;62.15;;;44.15;;
22525;SDS011;11429;50.842;4.386;2023-05-15T02:31:58;62.42;;;42.35;;
22525;SDS011;11429;50.842;4.386;2023-05-15T02:34:54;68.70;;;44.90;;
22525;SDS011;11429;50.842;4.386;2023-05-15T02:37:41;62.03;;;44.28;;
22525;SDS011;11429;50.842;4.386;2023-05-15T02:40:12;59.33;;;42.35;;
22525;SDS011;11429;50.842;4.386;2023-05-15T02:42:42;65.75;;;44.53;;
22525;SDS011;11429;50.842;4.386;2023-05-15T02:45:11;61.03;;;43.83;;
22525;SDS011;11429;50.842;4.386;2023-05-15T02:47:37;62.33;;;45.45;;
22525;SDS011;11429;50.842;4.386;2023-05-15T02:50:05;60.75;;;44.13;;
22525;SDS011;11429;50.842;4.386;2023-05-15T02:52:32;59.08;;;43.25;;
22525;SDS011;11429;50.842;4.386;2023-05-15T02:54:59;57.08;;;41.92;;
22525;SDS011;11429;50.842;4.386;2023-05-15T02:57:25;60.90;;;42.75;;
22525;SDS011;11429;50.842;4.386;2023-05-15T02:59:52;55.67;;;41.08;;
22525;SDS011;11429;50.842;4.386;2023-05-15T03:02:18;61.00;;;42.33;;
22525;SDS011;11429;50.842;4.386;2023-05-15T03:04:44;64.72;;;43.58;;
22525;SDS011;11429;50.842;4.386;2023-05-15T03:07:10;60.70;;;42.85;;
22525;SDS011;11429;50.842;4.386;2023-05-15T03:09:36;62.05;;;41.85;;
22525;SDS011;11429;50.842;4.386;2023-05-15T03:12:01;61.58;;;43.03;;
22525;SDS011;11429;50.842;4.386;2023-05-15T03:14:27;63.90;;;43.10;;
22525;SDS011;11429;50.842;4.386;2023-05-15T03:16:53;65.53;;;45.22;;
22525;SDS011;11429;50.842;4.386;2023-05-15T03:19:19;64.88;;;44.95;;
22525;SDS011;11429;50.842;4.386;2023-05-15T03:21:44;65.90;;;45.78;;
22525;SDS011;11429;50.842;4.386;2023-05-15T03:24:10;69.93;;;47.28;;
22525;SDS011;11429;50.842;4.386;2023-05-15T03:26:36;70.68;;;50.30;;
22525;SDS011;11429;50.842;4.386;2023-05-15T03:29:01;74.50;;;52.08;;
22525;SDS011;11429;50.842;4.386;2023-05-15T03:31:27;72.93;;;51.03;;
22525;SDS011;11429;50.842;4.386;2023-05-15T03:33:53;74.15;;;51.97;;
22525;SDS011;11429;50.842;4.386;2023-05-15T03:36:18;76.35;;;51.85;;
22525;SDS011;11429;50.842;4.386;2023-05-15T03:38:44;67.50;;;48.75;;
22525;SDS011;11429;50.842;4.386;2023-05-15T03:41:09;71.88;;;49.50;;
22525;SDS011;11429;50.842;4.386;2023-05-15T03:43:35;73.85;;;50.92;;
22525;SDS011;11429;50.842;4.386;2023-05-15T03:46:01;75.93;;;50.92;;
22525;SDS011;11429;50.842;4.386;2023-05-15T03:48:26;70.78;;;46.35;;
22525;SDS011;11429;50.842;4.386;2023-05-15T03:50:52;70.93;;;48.08;;
22525;SDS011;11429;50.842;4.386;2023-05-15T03:53:18;68.20;;;48.40;;
22525;SDS011;11429;50.842;4.386;2023-05-15T03:55:43;69.18;;;44.42;;
22525;SDS011;11429;50.842;4.386;2023-05-15T03:58:09;68.18;;;42.90;;
22525;SDS011;11429;50.842;4.386;2023-05-15T04:00:35;69.22;;;42.42;;
22525;SDS011;11429;50.842;4.386;2023-05-15T04:03:00;62.40;;;40.35;;
22525;SDS011;11429;50.842;4.386;2023-05-15T04:05:26;64.22;;;41.92;;
22525;SDS011;11429;50.842;4.386;2023-05-15T04:07:52;65.80;;;40.08;;
22525;SDS011;11429;50.842;4.386;2023-05-15T04:10:18;61.35;;;38.78;;
22525;SDS011;11429;50.842;4.386;2023-05-15T04:12:44;64.00;;;39.15;;
22525;SDS011;11429;50.842;4.386;2023-05-15T04:17:46;64.93;;;38.75;;
22525;SDS011;11429;50.842;4.386;2023-05-15T04:20:13;63.60;;;38.42;;
22525;SDS011;11429;50.842;4.386;2023-05-15T04:22:43;60.10;;;37.22;;
22525;SDS011;11429;50.842;4.386;2023-05-15T04:25:09;62.28;;;37.35;;
22525;SDS011;11429;50.842;4.386;2023-05-15T04:27:36;60.45;;;37.92;;
22525;SDS011;11429;50.842;4.386;2023-05-15T04:30:02;63.85;;;37.97;;
22525;SDS011;11429;50.842;4.386;2023-05-15T04:32:29;59.00;;;36.60;;
22525;SDS011;11429;50.842;4.386;2023-05-15T04:34:57;63.53;;;37.03;;
22525;SDS011;11429;50.842;4.386;2023-05-15T04:37:24;66.90;;;38.88;;
22525;SDS011;11429;50.842;4.386;2023-05-15T04:39:50;60.78;;;36.60;;
22525;SDS011;11429;50.842;4.386;2023-05-15T04:42:15;58.90;;;37.65;;
22525;SDS011;11429;50.842;4.386;2023-05-15T04:44:41;62.00;;;37.10;;
22525;SDS011;11429;50.842;4.386;2023-05-15T04:47:08;60.70;;;38.20;;
22525;SDS011;11429;50.842;4.386;2023-05-15T04:49:35;60.63;;;37.72;;
22525;SDS011;11429;50.842;4.386;2023-05-15T04:52:01;61.85;;;38.28;;
22525;SDS011;11429;50.842;4.386;2023-05-15T04:54:28;61.28;;;37.83;;
22525;SDS011;11429;50.842;4.386;2023-05-15T04:56:53;62.88;;;38.08;;
22525;SDS011;11429;50.842;4.386;2023-05-15T04:59:19;62.38;;;38.50;;
22525;SDS011;11429;50.842;4.386;2023-05-15T05:01:45;62.95;;;37.88;;
22525;SDS011;11429;50.842;4.386;2023-05-15T05:04:10;68.95;;;38.95;;
22525;SDS011;11429;50.842;4.386;2023-05-15T05:06:36;61.53;;;37.63;;
22525;SDS011;11429;50.842;4.386;2023-05-15T05:09:02;59.42;;;36.47;;
22525;SDS011;11429;50.842;4.386;2023-05-15T05:11:27;60.25;;;38.53;;
22525;SDS011;11429;50.842;4.386;2023-05-15T05:13:53;62.45;;;37.70;;
22525;SDS011;11429;50.842;4.386;2023-05-15T05:16:19;56.30;;;35.75;;
22525;SDS011;11429;50.842;4.386;2023-05-15T05:18:44;54.20;;;34.88;;
22525;SDS011;11429;50.842;4.386;2023-05-15T05:21:11;54.78;;;34.90;;
22525;SDS011;11429;50.842;4.386;2023-05-15T05:23:37;56.40;;;34.33;;
22525;SDS011;11429;50.842;4.386;2023-05-15T05:26:03;51.60;;;34.22;;
22525;SDS011;11429;50.842;4.386;2023-05-15T05:28:28;53.17;;;36.17;;
22525;SDS011;11429;50.842;4.386;2023-05-15T05:30:54;54.58;;;34.67;;
22525;SDS011;11429;50.842;4.386;2023-05-15T05:33:20;49.17;;;33.95;;
22525;SDS011;11429;50.842;4.386;2023-05-15T05:35:45;53.65;;;33.97;;
22525;SDS011;11429;50.842;4.386;2023-05-15T05:38:11;52.03;;;34.78;;
22525;SDS011;11429;50.842;4.386;2023-05-15T05:40:37;55.47;;;35.47;;
22525;SDS011;11429;50.842;4.386;2023-05-15T05:43:02;51.90;;;35.53;;
22525;SDS011;11429;50.842;4.386;2023-05-15T05:45:28;51.72;;;36.13;;
22525;SDS011;11429;50.842;4.386;2023-05-15T05:47:54;52.95;;;35.95;;
22525;SDS011;11429;50.842;4.386;2023-05-15T05:50:21;54.15;;;35.50;;
22525;SDS011;11429;50.842;4.386;2023-05-15T05:52:47;52.90;;;35.28;;
22525;SDS011;11429;50.842;4.386;2023-05-15T05:55:13;57.60;;;37.70;;
22525;SDS011;11429;50.842;4.386;2023-05-15T05:57:39;54.97;;;37.35;;
22525;SDS011;11429;50.842;4.386;2023-05-15T06:00:04;54.40;;;37.50;;
22525;SDS011;11429;50.842;4.386;2023-05-15T06:02:35;52.20;;;36.08;;
22525;SDS011;11429;50.842;4.386;2023-05-15T06:05:04;53.75;;;37.42;;
22525;SDS011;11429;50.842;4.386;2023-05-15T06:07:31;51.58;;;34.58;;
22525;SDS011;11429;50.842;4.386;2023-05-15T06:09:57;51.58;;;34.70;;
22525;SDS011;11429;50.842;4.386;2023-05-15T06:12:23;55.45;;;37.58;;
22525;SDS011;11429;50.842;4.386;2023-05-15T06:14:49;55.63;;;38.45;;
22525;SDS011;11429;50.842;4.386;2023-05-15T06:17:15;54.08;;;38.05;;
22525;SDS011;11429;50.842;4.386;2023-05-15T06:19:40;50.67;;;36.42;;
22525;SDS011;11429;50.842;4.386;2023-05-15T06:22:06;53.13;;;36.78;;
22525;SDS011;11429;50.842;4.386;2023-05-15T06:24:32;54.28;;;37.20;;
22525;SDS011;11429;50.842;4.386;2023-05-15T06:26:57;51.28;;;37.67;;
22525;SDS011;11429;50.842;4.386;2023-05-15T06:29:24;48.65;;;36.90;;
22525;SDS011;11429;50.842;4.386;2023-05-15T06:31:50;49.00;;;35.97;;
22525;SDS011;11429;50.842;4.386;2023-05-15T06:34:15;51.35;;;38.35;;
22525;SDS011;11429;50.842;4.386;2023-05-15T06:36:41;50.72;;;36.13;;
22525;SDS011;11429;50.842;4.386;2023-05-15T06:39:07;50.35;;;35.95;;
22525;SDS011;11429;50.842;4.386;2023-05-15T06:41:34;49.78;;;34.92;;
22525;SDS011;11429;50.842;4.386;2023-05-15T06:44:01;48.17;;;36.05;;
22525;SDS011;11429;50.842;4.386;2023-05-15T06:46:27;48.00;;;36.30;;
22525;SDS011;11429;50.842;4.386;2023-05-15T06:48:53;54.20;;;37.58;;
22525;SDS011;11429;50.842;4.386;2023-05-15T06:51:18;55.55;;;36.60;;
22525;SDS011;11429;50.842;4.386;2023-05-15T10:16:12;41.88;;;28.52;;
22525;SDS011;11429;50.842;4.386;2023-05-15T10:18:39;42.03;;;29.88;;
22525;SDS011;11429;50.842;4.386;2023-05-15T10:21:05;43.47;;;29.23;;
22525;SDS011;11429;50.842;4.386;2023-05-15T10:23:34;38.67;;;28.63;;
22525;SDS011;11429;50.842;4.386;2023-05-15T10:26:03;38.90;;;28.33;;
22525;SDS011;11429;50.842;4.386;2023-05-15T10:28:53;38.10;;;27.75;;
22525;SDS011;11429;50.842;4.386;2023-05-15T10:31:20;38.30;;;28.25;;
22525;SDS011;11429;50.842;4.386;2023-05-15T10:38:45;40.22;;;27.20;;
22525;SDS011;11429;50.842;4.386;2023-05-15T10:43:40;39.65;;;27.98;;
22525;SDS011;11429;50.842;4.386;2023-05-15T13:47:20;5.22;;;2.70;;
22525;SDS011;11429;50.842;4.386;2023-05-15T13:49:46;7.30;;;2.38;;
22525;SDS011;11429;50.842;4.386;2023-05-15T13:52:12;6.28;;;2.25;;
22525;SDS011;11429;50.842;4.386;2023-05-15T13:54:37;3.63;;;2.50;;
22525;SDS011;11429;50.842;4.386;2023-05-15T13:57:03;7.45;;;2.42;;
22525;SDS011;11429;50.842;4.386;2023-05-15T14:43:24;9.50;;;3.58;;
22525;SDS011;11429;50.842;4.386;2023-05-15T14:45:50;9.38;;;3.60;;
22525;SDS011;11429;50.842;4.386;2023-05-15T14:48:16;10.65;;;4.50;;
22525;SDS011;11429;50.842;4.386;2023-05-15T14:50:42;13.32;;;6.40;;
22525;SDS011;11429;50.842;4.386;2023-05-15T14:53:08;5.97;;;3.38;;
22525;SDS011;11429;50.842;4.386;2023-05-15T14:55:34;9.93;;;3.20;;
22525;SDS011;11429;50.842;4.386;2023-05-15T14:57:59;8.52;;;3.38;;
22525;SDS011;11429;50.842;4.386;2023-05-15T15:00:25;6.57;;;3.40;;
22525;SDS011;11429;50.842;4.386;2023-05-15T15:02:52;8.93;;;3.80;;
22525;SDS011;11429;50.842;4.386;2023-05-15T15:05:18;8.32;;;3.30;;
22525;SDS011;11429;50.842;4.386;2023-05-15T15:08:00;10.85;;;4.30;;
22525;SDS011;11429;50.842;4.386;2023-05-15T15:10:30;6.93;;;3.95;;
22525;SDS011;11429;50.842;4.386;2023-05-15T15:12:57;14.05;;;4.63;;
22525;SDS011;11429;50.842;4.386;2023-05-15T15:15:24;8.95;;;4.13;;
22525;SDS011;11429;50.842;4.386;2023-05-15T15:17:50;12.90;;;4.55;;
22525;SDS011;11429;50.842;4.386;2023-05-15T15:20:16;12.88;;;3.95;;
22525;SDS011;11429;50.842;4.386;2023-05-15T15:22:43;9.40;;;3.97;;
22525;SDS011;11429;50.842;4.386;2023-05-15T15:25:09;7.72;;;4.10;;
22525;SDS011;11429;50.842;4.386;2023-05-15T15:27:35;10.70;;;4.47;;
22525;SDS011;11429;50.842;4.386;2023-05-15T15:30:01;7.63;;;4.30;;
22525;SDS011;11429;50.842;4.386;2023-05-15T15:32:32;9.32;;;4.45;;
22525;SDS011;11429;50.842;4.386;2023-05-15T15:34:58;10.35;;;4.57;;
22525;SDS011;11429;50.842;4.386;2023-05-15T15:37:24;11.23;;;4.88;;
22525;SDS011;11429;50.842;4.386;2023-05-15T15:42:27;6.70;;;3.95;;
22525;SDS011;11429;50.842;4.386;2023-05-15T15:44:53;10.23;;;3.78;;
22525;SDS011;11429;50.842;4.386;2023-05-15T16:33:50;14.25;;;4.70;;
22525;SDS011;11429;50.842;4.386;2023-05-15T16:36:16;13.73;;;5.20;;
22525;SDS011;11429;50.842;4.386;2023-05-15T16:38:42;15.35;;;6.15;;
22525;SDS011;11429;50.842;4.386;2023-05-15T16:41:08;12.65;;;6.18;;
22525;SDS011;11429;50.842;4.386;2023-05-15T16:43:34;12.52;;;5.40;;
22525;SDS011;11429;50.842;4.386;2023-05-15T16:46:02;13.52;;;5.32;;
22525;SDS011;11429;50.842;4.386;2023-05-15T16:48:28;11.80;;;5.50;;
22525;SDS011;11429;50.842;4.386;2023-05-15T16:50:54;9.45;;;5.43;;
22525;SDS011;11429;50.842;4.386;2023-05-15T16:53:22;11.40;;;5.45;;
22525;SDS011;11429;50.842;4.386;2023-05-15T16:55:47;12.52;;;5.15;;
22525;SDS011;11429;50.842;4.386;2023-05-15T16:58:13;11.68;;;5.43;;
22525;SDS011;11429;50.842;4.386;2023-05-15T17:00:39;11.40;;;5.35;;
22525;SDS011;11429;50.842;4.386;2023-05-15T17:03:05;13.10;;;5.93;;
22525;SDS011;11429;50.842;4.386;2023-05-15T17:05:32;13.00;;;5.18;;
22525;SDS011;11429;50.842;4.386;2023-05-15T17:07:58;8.45;;;4.90;;
22525;SDS011;11429;50.842;4.386;2023-05-15T17:10:24;11.18;;;4.70;;
22525;SDS011;11429;50.842;4.386;2023-05-15T17:12:50;13.45;;;4.60;;
22525;SDS011;11429;50.842;4.386;2023-05-15T17:15:17;8.77;;;4.07;;
22525;SDS011;11429;50.842;4.386;2023-05-15T17:17:42;11.75;;;5.10;;
22525;SDS011;11429;50.842;4.386;2023-05-15T17:20:08;13.98;;;5.80;;
22525;SDS011;11429;50.842;4.386;2023-05-15T17:22:35;10.88;;;5.40;;
22525;SDS011;11429;50.842;4.386;2023-05-15T17:25:01;14.48;;;5.43;;
22525;SDS011;11429;50.842;4.386;2023-05-15T17:45:29;14.63;;;4.07;;
22525;SDS011;11429;50.842;4.386;2023-05-15T17:47:55;15.63;;;4.95;;
22525;SDS011;11429;50.842;4.386;2023-05-15T17:50:26;16.35;;;5.07;;
22525;SDS011;11429;50.842;4.386;2023-05-15T17:52:52;11.45;;;4.80;;
22525;SDS011;11429;50.842;4.386;2023-05-15T17:55:17;16.00;;;4.70;;
22525;SDS011;11429;50.842;4.386;2023-05-15T17:57:43;17.65;;;5.00;;
22525;SDS011;11429;50.842;4.386;2023-05-15T18:00:09;13.90;;;4.45;;
22525;SDS011;11429;50.842;4.386;2023-05-15T18:02:35;15.02;;;5.05;;
22525;SDS011;11429;50.842;4.386;2023-05-15T18:05:01;16.13;;;5.13;;
22525;SDS011;11429;50.842;4.386;2023-05-15T18:07:26;14.43;;;4.00;;
22525;SDS011;11429;50.842;4.386;2023-05-15T18:09:52;12.25;;;4.35;;
22525;SDS011;11429;50.842;4.386;2023-05-15T18:12:18;13.75;;;4.40;;
22525;SDS011;11429;50.842;4.386;2023-05-15T18:14:43;11.68;;;4.05;;
22525;SDS011;11429;50.842;4.386;2023-05-15T18:17:10;18.42;;;4.93;;
22525;SDS011;11429;50.842;4.386;2023-05-15T18:19:35;17.63;;;4.47;;
22525;SDS011;11429;50.842;4.386;2023-05-15T18:22:03;16.60;;;4.45;;
22525;SDS011;11429;50.842;4.386;2023-05-15T18:24:28;15.10;;;4.50;;
22525;SDS011;11429;50.842;4.386;2023-05-15T18:26:54;16.42;;;4.72;;
22525;SDS011;11429;50.842;4.386;2023-05-15T18:29:20;14.65;;;4.05;;
22525;SDS011;11429;50.842;4.386;2023-05-15T18:44:36;17.15;;;4.63;;
22525;SDS011;11429;50.842;4.386;2023-05-15T18:47:01;15.57;;;5.18;;
22525;SDS011;11429;50.842;4.386;2023-05-15T18:49:30;17.52;;;4.28;;
22525;SDS011;11429;50.842;4.386;2023-05-15T18:51:55;18.23;;;4.47;;
22525;SDS011;11429;50.842;4.386;2023-05-15T18:54:22;18.25;;;4.97;;
22525;SDS011;11429;50.842;4.386;2023-05-15T18:56:48;20.45;;;5.00;;
22525;SDS011;11429;50.842;4.386;2023-05-15T18:59:13;17.55;;;4.60;;
22525;SDS011;11429;50.842;4.386;2023-05-15T19:01:39;22.02;;;5.60;;
22525;SDS011;11429;50.842;4.386;2023-05-15T19:04:05;13.73;;;4.82;;
22525;SDS011;11429;50.842;4.386;2023-05-15T19:06:32;19.20;;;4.85;;
22525;SDS011;11429;50.842;4.386;2023-05-15T19:08:58;17.42;;;4.93;;
22525;SDS011;11429;50.842;4.386;2023-05-15T19:11:23;12.85;;;4.50;;
22525;SDS011;11429;50.842;4.386;2023-05-15T19:13:50;19.45;;;5.57;;
22525;SDS011;11429;50.842;4.386;2023-05-15T19:16:15;17.83;;;4.32;;
22525;SDS011;11429;50.842;4.386;2023-05-15T19:18:41;15.95;;;3.97;;
22525;SDS011;11429;50.842;4.386;2023-05-15T19:21:07;13.75;;;3.60;;
22525;SDS011;11429;50.842;4.386;2023-05-15T19:33:59;18.27;;;4.40;;
22525;SDS011;11429;50.842;4.386;2023-05-15T19:49:25;13.77;;;3.92;;
22525;SDS011;11429;50.842;4.386;2023-05-15T19:51:51;13.82;;;3.83;;
22525;SDS011;11429;50.842;4.386;2023-05-15T19:54:16;19.15;;;3.45;;
22525;SDS011;11429;50.842;4.386;2023-05-15T19:56:42;15.88;;;3.65;;
22525;SDS011;11429;50.842;4.386;2023-05-15T19:59:08;12.95;;;3.53;;
22525;SDS011;11429;50.842;4.386;2023-05-15T20:01:34;10.55;;;3.22;;
22525;SDS011;11429;50.842;4.386;2023-05-15T20:04:00;17.15;;;3.35;;
22525;SDS011;11429;50.842;4.386;2023-05-15T20:06:26;17.77;;;2.92;;
22525;SDS011;11429;50.842;4.386;2023-05-15T20:08:51;17.92;;;3.72;;
22525;SDS011;11429;50.842;4.386;2023-05-15T20:11:17;15.70;;;3.17;;
22525;SDS011;11429;50.842;4.386;2023-05-15T20:13:43;16.95;;;3.25;;
22525;SDS011;11429;50.842;4.386;2023-05-15T20:16:09;14.38;;;3.10;;
22525;SDS011;11429;50.842;4.386;2023-05-15T20:18:38;18.35;;;3.60;;
22525;SDS011;11429;50.842;4.386;2023-05-15T20:21:03;14.43;;;3.38;;
22525;SDS011;11429;50.842;4.386;2023-05-15T20:23:30;16.13;;;3.47;;
22525;SDS011;11429;50.842;4.386;2023-05-15T20:25:56;16.80;;;3.58;;
22525;SDS011;11429;50.842;4.386;2023-05-15T20:28:22;13.15;;;3.47;;
22525;SDS011;11429;50.842;4.386;2023-05-15T20:30:50;12.23;;;3.13;;
22525;SDS011;11429;50.842;4.386;2023-05-15T20:33:16;12.52;;;3.10;;
22525;SDS011;11429;50.842;4.386;2023-05-15T20:35:42;15.50;;;3.20;;
22525;SDS011;11429;50.842;4.386;2023-05-15T20:38:09;16.13;;;3.65;;
22525;SDS011;11429;50.842;4.386;2023-05-15T20:40:36;16.70;;;2.90;;
22525;SDS011;11429;50.842;4.386;2023-05-15T20:43:02;15.45;;;3.40;;
22525;SDS011;11429;50.842;4.386;2023-05-15T20:45:27;20.10;;;3.40;;
22525;SDS011;11429;50.842;4.386;2023-05-15T20:47:53;14.95;;;3.47;;
22525;SDS011;11429;50.842;4.386;2023-05-15T20:50:19;20.15;;;3.38;;
22525;SDS011;11429;50.842;4.386;2023-05-15T20:52:45;20.00;;;3.80;;
22525;SDS011;11429;50.842;4.386;2023-05-15T20:55:11;14.45;;;3.17;;
22525;SDS011;11429;50.842;4.386;2023-05-15T20:57:43;18.38;;;3.42;;
22525;SDS011;11429;50.842;4.386;2023-05-15T21:00:10;17.73;;;3.35;;
22525;SDS011;11429;50.842;4.386;2023-05-15T21:02:37;16.83;;;3.17;;
22525;SDS011;11429;50.842;4.386;2023-05-15T21:05:03;16.05;;;3.45;;
22525;SDS011;11429;50.842;4.386;2023-05-15T21:07:29;17.40;;;3.65;;
22525;SDS011;11429;50.842;4.386;2023-05-15T21:09:55;14.90;;;2.92;;
22525;SDS011;11429;50.842;4.386;2023-05-15T21:12:21;15.30;;;3.72;;
22525;SDS011;11429;50.842;4.386;2023-05-15T21:14:47;13.75;;;3.28;;
22525;SDS011;11429;50.842;4.386;2023-05-15T21:17:12;19.38;;;3.08;;
22525;SDS011;11429;50.842;4.386;2023-05-15T21:19:38;19.60;;;3.70;;
22525;SDS011;11429;50.842;4.386;2023-05-15T21:22:04;22.60;;;3.50;;
22525;SDS011;11429;50.842;4.386;2023-05-15T21:24:30;15.82;;;2.92;;
22525;SDS011;11429;50.842;4.386;2023-05-15T21:26:56;19.05;;;3.30;;
22525;SDS011;11429;50.842;4.386;2023-05-15T21:29:21;20.20;;;3.88;;
22525;SDS011;11429;50.842;4.386;2023-05-15T21:31:47;18.00;;;3.05;;
22525;SDS011;11429;50.842;4.386;2023-05-15T21:34:13;15.40;;;3.38;;
22525;SDS011;11429;50.842;4.386;2023-05-15T21:36:39;15.70;;;3.75;;
22525;SDS011;11429;50.842;4.386;2023-05-15T21:39:04;16.92;;;3.38;;
22525;SDS011;11429;50.842;4.386;2023-05-15T21:41:30;18.42;;;3.33;;
22525;SDS011;11429;50.842;4.386;2023-05-15T21:43:56;18.52;;;3.03;;
22525;SDS011;11429;50.842;4.386;2023-05-15T21:46:22;12.52;;;3.00;;
22525;SDS011;11429;50.842;4.386;2023-05-15T21:48:48;14.18;;;3.03;;
22525;SDS011;11429;50.842;4.386;2023-05-15T21:51:13;14.55;;;3.30;;
22525;SDS011;11429;50.842;4.386;2023-05-15T21:53:39;10.90;;;2.78;;
22525;SDS011;11429;50.842;4.386;2023-05-15T21:56:05;16.27;;;3.28;;
22525;SDS011;11429;50.842;4.386;2023-05-15T21:58:31;17.75;;;3.25;;
22525;SDS011;11429;50.842;4.386;2023-05-15T22:00:57;17.95;;;3.50;;
22525;SDS011;11429;50.842;4.386;2023-05-15T22:03:23;16.83;;;3.03;;
22525;SDS011;11429;50.842;4.386;2023-05-15T22:05:48;17.27;;;2.65;;
22525;SDS011;11429;50.842;4.386;2023-05-15T22:08:16;17.40;;;3.00;;
22525;SDS011;11429;50.842;4.386;2023-05-15T22:10:45;13.13;;;2.63;;
22525;SDS011;11429;50.842;4.386;2023-05-15T22:13:11;11.27;;;2.30;;
22525;SDS011;11429;50.842;4.386;2023-05-15T22:15:37;20.40;;;2.95;;
22525;SDS011;11429;50.842;4.386;2023-05-15T22:18:03;16.65;;;3.17;;
22525;SDS011;11429;50.842;4.386;2023-05-15T22:20:32;13.18;;;2.88;;
22525;SDS011;11429;50.842;4.386;2023-05-15T22:22:58;11.55;;;2.58;;
22525;SDS011;11429;50.842;4.386;2023-05-15T22:25:24;19.23;;;5.63;;
22525;SDS011;11429;50.842;4.386;2023-05-15T22:27:49;11.82;;;3.15;;
22525;SDS011;11429;50.842;4.386;2023-05-15T22:30:15;28.10;;;8.63;;
22525;SDS011;11429;50.842;4.386;2023-05-15T22:32:41;19.10;;;4.22;;
22525;SDS011;11429;50.842;4.386;2023-05-15T22:35:07;13.90;;;2.72;;
22525;SDS011;11429;50.842;4.386;2023-05-15T22:37:33;17.50;;;3.40;;
22525;SDS011;11429;50.842;4.386;2023-05-15T22:39:59;16.35;;;3.78;;
22525;SDS011;11429;50.842;4.386;2023-05-15T22:42:25;13.00;;;2.78;;
22525;SDS011;11429;50.842;4.386;2023-05-15T22:44:52;12.55;;;2.58;;
22525;SDS011;11429;50.842;4.386;2023-05-15T22:47:24;17.95;;;3.17;;
22525;SDS011;11429;50.842;4.386;2023-05-15T22:49:52;12.10;;;2.47;;
22525;SDS011;11429;50.842;4.386;2023-05-15T22:52:18;21.42;;;3.40;;
22525;SDS011;11429;50.842;4.386;2023-05-15T22:54:44;14.57;;;2.53;;
22525;SDS011;11429;50.842;4.386;2023-05-15T22:57:10;13.57;;;2.63;;
22525;SDS011;11429;50.842;4.386;2023-05-15T22:59:35;20.20;;;3.65;;
22525;SDS011;11429;50.842;4.386;2023-05-15T23:02:01;22.30;;;3.38;;
22525;SDS011;11429;50.842;4.386;2023-05-15T23:04:27;21.00;;;3.40;;
22525;SDS011;11429;50.842;4.386;2023-05-15T23:06:53;19.95;;;2.83;;
22525;SDS011;11429;50.842;4.386;2023-05-15T23:09:19;13.50;;;2.88;;
22525;SDS011;11429;50.842;4.386;2023-05-15T23:11:45;15.52;;;2.72;;
22525;SDS011;11429;50.842;4.386;2023-05-15T23:14:11;13.68;;;3.08;;
22525;SDS011;11429;50.842;4.386;2023-05-15T23:16:39;15.73;;;2.85;;
22525;SDS011;11429;50.842;4.386;2023-05-15T23:19:05;15.85;;;2.95;;
22525;SDS011;11429;50.842;4.386;2023-05-15T23:21:31;15.55;;;2.72;;
22525;SDS011;11429;50.842;4.386;2023-05-15T23:23:57;16.10;;;3.17;;
22525;SDS011;11429;50.842;4.386;2023-05-15T23:26:22;19.98;;;3.78;;
22525;SDS011;11429;50.842;4.386;2023-05-15T23:28:48;21.55;;;3.25;;
22525;SDS011;11429;50.842;4.386;2023-05-15T23:31:14;16.70;;;2.60;;
22525;SDS011;11429;50.842;4.386;2023-05-15T23:33:40;18.15;;;2.60;;
22525;SDS011;11429;50.842;4.386;2023-05-15T23:36:06;12.90;;;3.10;;